sensor_id;sensor_type;location;lat;lon;timestamp;temperature;humidity
42333;DHT22;27984;51.476;5.702;2023-04-24T00:01:21;9.90;99.90
42333;DHT22;27984;51.476;5.702;2023-04-24T00:03:47;10.00;99.90
42333;DHT22;27984;51.476;5.702;2023-04-24T00:06:12;10.00;99.90
42333;DHT22;27984;51.476;5.702;2023-04-24T00:08:38;10.00;99.90
42333;DHT22;27984;51.476;5.702;2023-04-24T00:11:03;10.00;99.90
42333;DHT22;27984;51.476;5.702;2023-04-24T00:13:29;10.00;99.90
42333;DHT22;27984;51.476;5.702;2023-04-24T00:15:55;10.00;99.90
42333;DHT22;27984;51.476;5.702;2023-04-24T00:18:21;9.90;99.90
42333;DHT22;27984;51.476;5.702;2023-04-24T00:20:47;10.00;99.90
42333;DHT22;27984;51.476;5.702;2023-04-24T00:23:12;9.90;99.90
42333;DHT22;27984;51.476;5.702;2023-04-24T00:25:38;9.90;99.90
42333;DHT22;27984;51.476;5.702;2023-04-24T00:28:04;9.90;99.90
42333;DHT22;27984;51.476;5.702;2023-04-24T00:30:29;9.90;99.90
42333;DHT22;27984;51.476;5.702;2023-04-24T00:32:55;9.90;99.90
42333;DHT22;27984;51.476;5.702;2023-04-24T00:35:20;9.90;99.90
42333;DHT22;27984;51.476;5.702;2023-04-24T00:37:46;9.90;99.90
42333;DHT22;27984;51.476;5.702;2023-04-24T00:40:12;9.80;99.90
42333;DHT22;27984;51.476;5.702;2023-04-24T00:42:39;9.80;99.90
42333;DHT22;27984;51.476;5.702;2023-04-24T00:45:06;9.80;99.90
42333;DHT22;27984;51.476;5.702;2023-04-24T00:47:33;9.80;99.90
42333;DHT22;27984;51.476;5.702;2023-04-24T00:50:00;9.90;99.90
42333;DHT22;27984;51.476;5.702;2023-04-24T00:52:26;9.80;99.90
42333;DHT22;27984;51.476;5.702;2023-04-24T00:54:51;9.80;99.90
42333;DHT22;27984;51.476;5.702;2023-04-24T00:57:17;9.80;99.90
42333;DHT22;27984;51.476;5.702;2023-04-24T00:59:43;9.80;99.90
42333;DHT22;27984;51.476;5.702;2023-04-24T01:02:09;9.70;99.90
42333;DHT22;27984;51.476;5.702;2023-04-24T01:04:36;9.70;99.90
42333;DHT22;27984;51.476;5.702;2023-04-24T01:07:02;9.70;99.90
42333;DHT22;27984;51.476;5.702;2023-04-24T01:09:28;9.60;99.90
42333;DHT22;27984;51.476;5.702;2023-04-24T01:11:54;9.60;99.90
42333;DHT22;27984;51.476;5.702;2023-04-24T01:14:20;9.60;99.90
42333;DHT22;27984;51.476;5.702;2023-04-24T01:16:45;9.50;99.90
42333;DHT22;27984;51.476;5.702;2023-04-24T01:19:11;9.60;99.90
42333;DHT22;27984;51.476;5.702;2023-04-24T01:21:38;9.60;99.90
42333;DHT22;27984;51.476;5.702;2023-04-24T01:24:05;9.60;99.90
42333;DHT22;27984;51.476;5.702;2023-04-24T01:26:30;9.60;99.90
42333;DHT22;27984;51.476;5.702;2023-04-24T01:28:56;9.50;99.90
42333;DHT22;27984;51.476;5.702;2023-04-24T01:31:22;9.60;99.90
42333;DHT22;27984;51.476;5.702;2023-04-24T01:33:49;9.50;99.90
42333;DHT22;27984;51.476;5.702;2023-04-24T01:36:16;9.50;99.90
42333;DHT22;27984;51.476;5.702;2023-04-24T01:38:42;9.50;99.90
42333;DHT22;27984;51.476;5.702;2023-04-24T01:41:07;9.50;99.90
42333;DHT22;27984;51.476;5.702;2023-04-24T01:43:33;9.40;99.90
42333;DHT22;27984;51.476;5.702;2023-04-24T01:45:59;9.50;99.90
42333;DHT22;27984;51.476;5.702;2023-04-24T01:48:24;9.50;99.90
42333;DHT22;27984;51.476;5.702;2023-04-24T01:50:50;9.50;99.90
42333;DHT22;27984;51.476;5.702;2023-04-24T01:53:16;9.50;99.90
42333;DHT22;27984;51.476;5.702;2023-04-24T01:55:41;9.50;99.90
42333;DHT22;27984;51.476;5.702;2023-04-24T01:58:07;9.50;99.90
42333;DHT22;27984;51.476;5.702;2023-04-24T02:00:33;9.50;99.90
42333;DHT22;27984;51.476;5.702;2023-04-24T02:02:58;9.50;99.90
42333;DHT22;27984;51.476;5.702;2023-04-24T02:05:24;9.50;99.90
42333;DHT22;27984;51.476;5.702;2023-04-24T02:07:49;9.50;99.90
42333;DHT22;27984;51.476;5.702;2023-04-24T02:10:15;9.50;99.90
42333;DHT22;27984;51.476;5.702;2023-04-24T02:12:40;9.50;99.90
42333;DHT22;27984;51.476;5.702;2023-04-24T02:15:06;9.50;99.90
42333;DHT22;27984;51.476;5.702;2023-04-24T02:17:32;9.50;99.90
42333;DHT22;27984;51.476;5.702;2023-04-24T02:19:57;9.50;99.90
42333;DHT22;27984;51.476;5.702;2023-04-24T02:22:23;9.50;99.90
42333;DHT22;27984;51.476;5.702;2023-04-24T02:24:48;9.50;99.90
42333;DHT22;27984;51.476;5.702;2023-04-24T02:27:14;9.50;99.90
42333;DHT22;27984;51.476;5.702;2023-04-24T02:29:40;9.50;99.90
42333;DHT22;27984;51.476;5.702;2023-04-24T02:32:05;9.50;99.90
42333;DHT22;27984;51.476;5.702;2023-04-24T02:34:31;9.50;99.90
42333;DHT22;27984;51.476;5.702;2023-04-24T02:36:56;9.50;99.90
42333;DHT22;27984;51.476;5.702;2023-04-24T02:39:22;9.50;99.90
42333;DHT22;27984;51.476;5.702;2023-04-24T02:41:47;9.50;99.90
42333;DHT22;27984;51.476;5.702;2023-04-24T02:44:13;9.50;99.90
42333;DHT22;27984;51.476;5.702;2023-04-24T02:46:38;9.50;99.90
42333;DHT22;27984;51.476;5.702;2023-04-24T02:49:06;9.50;99.90
42333;DHT22;27984;51.476;5.702;2023-04-24T02:51:32;9.60;99.90
42333;DHT22;27984;51.476;5.702;2023-04-24T02:53:57;9.50;99.90
42333;DHT22;27984;51.476;5.702;2023-04-24T02:56:23;9.50;99.90
42333;DHT22;27984;51.476;5.702;2023-04-24T02:58:48;9.60;99.90
42333;DHT22;27984;51.476;5.702;2023-04-24T03:01:14;9.60;99.90
42333;DHT22;27984;51.476;5.702;2023-04-24T03:03:40;9.60;99.90
42333;DHT22;27984;51.476;5.702;2023-04-24T03:06:05;9.60;99.90
42333;DHT22;27984;51.476;5.702;2023-04-24T03:08:33;9.60;99.90
42333;DHT22;27984;51.476;5.702;2023-04-24T03:10:58;9.60;99.90
42333;DHT22;27984;51.476;5.702;2023-04-24T03:13:24;9.60;99.90
42333;DHT22;27984;51.476;5.702;2023-04-24T03:15:49;9.60;99.90
42333;DHT22;27984;51.476;5.702;2023-04-24T03:18:15;9.60;99.90
42333;DHT22;27984;51.476;5.702;2023-04-24T03:20:41;9.60;99.90
42333;DHT22;27984;51.476;5.702;2023-04-24T03:23:06;9.60;99.90
42333;DHT22;27984;51.476;5.702;2023-04-24T03:25:32;9.60;99.90
42333;DHT22;27984;51.476;5.702;2023-04-24T03:27:57;9.60;99.90
42333;DHT22;27984;51.476;5.702;2023-04-24T03:30:23;9.60;99.90
42333;DHT22;27984;51.476;5.702;2023-04-24T03:32:48;9.60;99.90
42333;DHT22;27984;51.476;5.702;2023-04-24T03:35:14;9.60;99.90
42333;DHT22;27984;51.476;5.702;2023-04-24T03:37:39;9.60;99.90
42333;DHT22;27984;51.476;5.702;2023-04-24T03:40:05;9.50;99.90
42333;DHT22;27984;51.476;5.702;2023-04-24T03:42:32;9.50;99.90
42333;DHT22;27984;51.476;5.702;2023-04-24T03:44:57;9.50;99.90
42333;DHT22;27984;51.476;5.702;2023-04-24T03:47:23;9.50;99.90
42333;DHT22;27984;51.476;5.702;2023-04-24T03:49:48;9.40;99.90
42333;DHT22;27984;51.476;5.702;2023-04-24T03:52:14;9.50;99.90
42333;DHT22;27984;51.476;5.702;2023-04-24T03:54:40;9.50;99.90
42333;DHT22;27984;51.476;5.702;2023-04-24T03:57:05;9.50;99.90
42333;DHT22;27984;51.476;5.702;2023-04-24T03:59:31;9.40;99.90
42333;DHT22;27984;51.476;5.702;2023-04-24T04:01:56;9.40;99.90
42333;DHT22;27984;51.476;5.702;2023-04-24T04:04:22;9.50;99.90
42333;DHT22;27984;51.476;5.702;2023-04-24T04:06:47;9.50;99.90
42333;DHT22;27984;51.476;5.702;2023-04-24T04:09:13;9.50;99.90
42333;DHT22;27984;51.476;5.702;2023-04-24T04:11:39;9.50;99.90
42333;DHT22;27984;51.476;5.702;2023-04-24T04:14:04;9.40;99.90
42333;DHT22;27984;51.476;5.702;2023-04-24T04:16:30;9.40;99.90
42333;DHT22;27984;51.476;5.702;2023-04-24T04:18:56;9.40;99.90
42333;DHT22;27984;51.476;5.702;2023-04-24T04:21:21;9.40;99.90
42333;DHT22;27984;51.476;5.702;2023-04-24T04:23:47;9.30;99.90
42333;DHT22;27984;51.476;5.702;2023-04-24T04:26:13;9.30;99.90
42333;DHT22;27984;51.476;5.702;2023-04-24T04:28:39;9.20;99.90
42333;DHT22;27984;51.476;5.702;2023-04-24T04:31:05;9.10;99.90
42333;DHT22;27984;51.476;5.702;2023-04-24T04:33:31;9.10;99.90
42333;DHT22;27984;51.476;5.702;2023-04-24T04:35:56;9.00;99.90
42333;DHT22;27984;51.476;5.702;2023-04-24T04:38:22;9.00;99.90
42333;DHT22;27984;51.476;5.702;2023-04-24T04:40:48;9.00;99.90
42333;DHT22;27984;51.476;5.702;2023-04-24T04:43:13;9.00;99.90
42333;DHT22;27984;51.476;5.702;2023-04-24T04:45:40;9.00;99.90
42333;DHT22;27984;51.476;5.702;2023-04-24T04:48:08;9.00;99.90
42333;DHT22;27984;51.476;5.702;2023-04-24T04:50:35;8.90;99.90
42333;DHT22;27984;51.476;5.702;2023-04-24T04:53:00;8.90;99.90
42333;DHT22;27984;51.476;5.702;2023-04-24T04:55:26;8.90;99.90
42333;DHT22;27984;51.476;5.702;2023-04-24T04:57:51;8.90;99.90
42333;DHT22;27984;51.476;5.702;2023-04-24T05:00:17;8.90;99.90
42333;DHT22;27984;51.476;5.702;2023-04-24T05:02:43;8.90;99.90
42333;DHT22;27984;51.476;5.702;2023-04-24T05:05:08;8.80;99.90
42333;DHT22;27984;51.476;5.702;2023-04-24T05:07:34;8.80;99.90
42333;DHT22;27984;51.476;5.702;2023-04-24T05:09:59;8.80;99.90
42333;DHT22;27984;51.476;5.702;2023-04-24T05:12:25;8.80;99.90
42333;DHT22;27984;51.476;5.702;2023-04-24T05:14:50;8.70;99.90
42333;DHT22;27984;51.476;5.702;2023-04-24T05:17:16;8.70;99.90
42333;DHT22;27984;51.476;5.702;2023-04-24T05:19:42;8.80;99.90
42333;DHT22;27984;51.476;5.702;2023-04-24T05:22:08;8.80;99.90
42333;DHT22;27984;51.476;5.702;2023-04-24T05:24:35;8.80;99.90
42333;DHT22;27984;51.476;5.702;2023-04-24T05:27:00;8.80;99.90
42333;DHT22;27984;51.476;5.702;2023-04-24T05:29:27;8.80;99.90
42333;DHT22;27984;51.476;5.702;2023-04-24T05:31:53;8.80;99.90
42333;DHT22;27984;51.476;5.702;2023-04-24T05:34:18;8.80;99.90
42333;DHT22;27984;51.476;5.702;2023-04-24T05:36:44;8.90;99.90
42333;DHT22;27984;51.476;5.702;2023-04-24T05:39:09;8.80;99.90
42333;DHT22;27984;51.476;5.702;2023-04-24T05:41:35;8.90;99.90
42333;DHT22;27984;51.476;5.702;2023-04-24T05:44:00;8.90;99.90
42333;DHT22;27984;51.476;5.702;2023-04-24T05:46:26;8.90;99.90
42333;DHT22;27984;51.476;5.702;2023-04-24T05:48:52;8.90;99.90
42333;DHT22;27984;51.476;5.702;2023-04-24T05:51:17;8.90;99.90
42333;DHT22;27984;51.476;5.702;2023-04-24T05:53:43;8.80;99.90
42333;DHT22;27984;51.476;5.702;2023-04-24T05:56:08;8.80;99.90
42333;DHT22;27984;51.476;5.702;2023-04-24T05:58:34;8.80;99.90
42333;DHT22;27984;51.476;5.702;2023-04-24T06:00:59;8.70;99.90
42333;DHT22;27984;51.476;5.702;2023-04-24T06:03:26;8.70;99.90
42333;DHT22;27984;51.476;5.702;2023-04-24T06:05:53;8.70;99.90
42333;DHT22;27984;51.476;5.702;2023-04-24T06:08:18;8.70;99.90
42333;DHT22;27984;51.476;5.702;2023-04-24T06:10:44;8.60;99.90
42333;DHT22;27984;51.476;5.702;2023-04-24T06:13:10;8.60;99.90
42333;DHT22;27984;51.476;5.702;2023-04-24T06:15:36;8.60;99.90
42333;DHT22;27984;51.476;5.702;2023-04-24T06:18:02;8.50;99.90
42333;DHT22;27984;51.476;5.702;2023-04-24T06:20:28;8.50;99.90
42333;DHT22;27984;51.476;5.702;2023-04-24T06:22:54;8.50;99.90
42333;DHT22;27984;51.476;5.702;2023-04-24T06:25:20;8.50;99.90
42333;DHT22;27984;51.476;5.702;2023-04-24T06:27:45;8.50;99.90
42333;DHT22;27984;51.476;5.702;2023-04-24T06:30:11;8.50;99.90
42333;DHT22;27984;51.476;5.702;2023-04-24T06:32:37;8.50;99.90
42333;DHT22;27984;51.476;5.702;2023-04-24T06:35:03;8.50;99.90
42333;DHT22;27984;51.476;5.702;2023-04-24T06:37:28;8.60;99.90
42333;DHT22;27984;51.476;5.702;2023-04-24T06:39:54;8.60;99.90
42333;DHT22;27984;51.476;5.702;2023-04-24T06:42:20;8.60;99.90
42333;DHT22;27984;51.476;5.702;2023-04-24T06:44:50;8.70;99.90
42333;DHT22;27984;51.476;5.702;2023-04-24T06:47:15;8.70;99.90
42333;DHT22;27984;51.476;5.702;2023-04-24T06:49:41;8.70;99.90
42333;DHT22;27984;51.476;5.702;2023-04-24T06:52:07;8.70;99.90
42333;DHT22;27984;51.476;5.702;2023-04-24T06:54:33;8.70;99.90
42333;DHT22;27984;51.476;5.702;2023-04-24T06:56:59;8.80;99.90
42333;DHT22;27984;51.476;5.702;2023-04-24T06:59:26;8.70;99.90
42333;DHT22;27984;51.476;5.702;2023-04-24T07:01:52;8.80;99.90
42333;DHT22;27984;51.476;5.702;2023-04-24T07:04:18;8.80;99.90
42333;DHT22;27984;51.476;5.702;2023-04-24T07:06:45;8.90;99.90
42333;DHT22;27984;51.476;5.702;2023-04-24T07:09:11;8.90;99.90
42333;DHT22;27984;51.476;5.702;2023-04-24T07:11:36;9.00;99.90
42333;DHT22;27984;51.476;5.702;2023-04-24T07:14:04;8.90;99.90
42333;DHT22;27984;51.476;5.702;2023-04-24T07:16:29;8.90;99.90
42333;DHT22;27984;51.476;5.702;2023-04-24T07:18:55;8.90;99.90
42333;DHT22;27984;51.476;5.702;2023-04-24T07:21:21;8.90;99.90
42333;DHT22;27984;51.476;5.702;2023-04-24T07:23:46;8.80;99.90
42333;DHT22;27984;51.476;5.702;2023-04-24T07:26:12;8.80;99.90
42333;DHT22;27984;51.476;5.702;2023-04-24T07:28:39;8.70;99.90
42333;DHT22;27984;51.476;5.702;2023-04-24T07:31:05;8.80;99.90
42333;DHT22;27984;51.476;5.702;2023-04-24T07:33:31;8.80;99.90
42333;DHT22;27984;51.476;5.702;2023-04-24T07:35:56;8.70;99.90
42333;DHT22;27984;51.476;5.702;2023-04-24T07:38:22;8.70;99.90
42333;DHT22;27984;51.476;5.702;2023-04-24T07:40:48;8.70;99.90
42333;DHT22;27984;51.476;5.702;2023-04-24T07:43:14;8.60;99.90
42333;DHT22;27984;51.476;5.702;2023-04-24T07:45:39;8.60;99.90
42333;DHT22;27984;51.476;5.702;2023-04-24T07:48:05;8.60;99.90
42333;DHT22;27984;51.476;5.702;2023-04-24T07:50:32;8.50;99.90
42333;DHT22;27984;51.476;5.702;2023-04-24T07:52:58;8.60;99.90
42333;DHT22;27984;51.476;5.702;2023-04-24T07:55:23;8.60;99.90
42333;DHT22;27984;51.476;5.702;2023-04-24T07:57:49;8.60;99.90
42333;DHT22;27984;51.476;5.702;2023-04-24T08:00:15;8.60;99.90
42333;DHT22;27984;51.476;5.702;2023-04-24T08:02:40;8.60;99.90
42333;DHT22;27984;51.476;5.702;2023-04-24T08:05:06;8.60;99.90
42333;DHT22;27984;51.476;5.702;2023-04-24T08:07:32;8.50;99.90
42333;DHT22;27984;51.476;5.702;2023-04-24T08:09:58;8.50;99.90
42333;DHT22;27984;51.476;5.702;2023-04-24T08:12:24;8.50;99.90
42333;DHT22;27984;51.476;5.702;2023-04-24T08:14:50;8.50;99.90
42333;DHT22;27984;51.476;5.702;2023-04-24T08:17:16;8.50;99.90
42333;DHT22;27984;51.476;5.702;2023-04-24T08:19:42;8.50;99.90
42333;DHT22;27984;51.476;5.702;2023-04-24T08:22:12;8.60;99.90
42333;DHT22;27984;51.476;5.702;2023-04-24T08:24:38;8.50;99.90
42333;DHT22;27984;51.476;5.702;2023-04-24T08:27:04;8.60;99.90
42333;DHT22;27984;51.476;5.702;2023-04-24T08:29:29;8.60;99.90
42333;DHT22;27984;51.476;5.702;2023-04-24T08:31:55;8.60;99.90
42333;DHT22;27984;51.476;5.702;2023-04-24T08:34:21;8.70;99.90
42333;DHT22;27984;51.476;5.702;2023-04-24T08:36:47;8.70;99.90
42333;DHT22;27984;51.476;5.702;2023-04-24T08:39:13;8.80;99.90
42333;DHT22;27984;51.476;5.702;2023-04-24T08:41:41;8.80;99.90
42333;DHT22;27984;51.476;5.702;2023-04-24T08:44:09;8.80;99.90
42333;DHT22;27984;51.476;5.702;2023-04-24T08:46:35;8.80;99.90
42333;DHT22;27984;51.476;5.702;2023-04-24T08:49:02;8.90;99.90
42333;DHT22;27984;51.476;5.702;2023-04-24T08:51:29;8.80;99.90
42333;DHT22;27984;51.476;5.702;2023-04-24T08:53:56;8.80;99.90
42333;DHT22;27984;51.476;5.702;2023-04-24T08:56:22;8.80;99.90
42333;DHT22;27984;51.476;5.702;2023-04-24T08:58:51;8.90;99.90
42333;DHT22;27984;51.476;5.702;2023-04-24T09:01:19;9.00;99.90
42333;DHT22;27984;51.476;5.702;2023-04-24T09:03:47;9.00;99.90
42333;DHT22;27984;51.476;5.702;2023-04-24T09:06:13;9.00;99.90
42333;DHT22;27984;51.476;5.702;2023-04-24T09:08:41;9.00;99.90
42333;DHT22;27984;51.476;5.702;2023-04-24T09:11:08;9.00;99.90
42333;DHT22;27984;51.476;5.702;2023-04-24T09:13:33;9.00;99.90
42333;DHT22;27984;51.476;5.702;2023-04-24T09:15:59;9.10;99.90
42333;DHT22;27984;51.476;5.702;2023-04-24T09:18:26;9.20;99.90
42333;DHT22;27984;51.476;5.702;2023-04-24T09:23:29;9.70;99.90
42333;DHT22;27984;51.476;5.702;2023-04-24T09:25:56;9.70;99.90
42333;DHT22;27984;51.476;5.702;2023-04-24T09:28:34;9.60;99.90
42333;DHT22;27984;51.476;5.702;2023-04-24T09:33:32;9.40;99.90
42333;DHT22;27984;51.476;5.702;2023-04-24T09:35:58;9.20;99.90
42333;DHT22;27984;51.476;5.702;2023-04-24T09:38:35;9.10;99.90
42333;DHT22;27984;51.476;5.702;2023-04-24T09:41:08;9.10;99.90
42333;DHT22;27984;51.476;5.702;2023-04-24T09:43:38;9.10;99.90
42333;DHT22;27984;51.476;5.702;2023-04-24T09:46:07;9.20;99.90
42333;DHT22;27984;51.476;5.702;2023-04-24T09:48:36;9.50;99.90
42333;DHT22;27984;51.476;5.702;2023-04-24T09:51:03;9.80;99.90
42333;DHT22;27984;51.476;5.702;2023-04-24T09:53:29;10.10;99.90
42333;DHT22;27984;51.476;5.702;2023-04-24T09:55:56;10.20;99.90
42333;DHT22;27984;51.476;5.702;2023-04-24T09:58:25;10.10;99.90
42333;DHT22;27984;51.476;5.702;2023-04-24T10:00:55;9.80;99.90
42333;DHT22;27984;51.476;5.702;2023-04-24T10:03:24;9.50;99.90
42333;DHT22;27984;51.476;5.702;2023-04-24T10:05:51;9.40;99.90
42333;DHT22;27984;51.476;5.702;2023-04-24T10:08:17;9.40;99.90
42333;DHT22;27984;51.476;5.702;2023-04-24T10:10:45;9.30;99.90
42333;DHT22;27984;51.476;5.702;2023-04-24T10:13:13;9.40;99.90
42333;DHT22;27984;51.476;5.702;2023-04-24T10:15:40;9.40;99.90
42333;DHT22;27984;51.476;5.702;2023-04-24T10:18:06;9.50;99.90
42333;DHT22;27984;51.476;5.702;2023-04-24T10:20:33;9.70;99.90
42333;DHT22;27984;51.476;5.702;2023-04-24T10:23:00;10.00;99.90
42333;DHT22;27984;51.476;5.702;2023-04-24T10:25:31;10.30;99.90
42333;DHT22;27984;51.476;5.702;2023-04-24T10:27:58;10.70;99.90
42333;DHT22;27984;51.476;5.702;2023-04-24T10:30:34;11.10;99.90
42333;DHT22;27984;51.476;5.702;2023-04-24T10:33:04;11.40;99.90
42333;DHT22;27984;51.476;5.702;2023-04-24T10:35:38;11.20;99.90
42333;DHT22;27984;51.476;5.702;2023-04-24T10:38:15;11.30;99.90
42333;DHT22;27984;51.476;5.702;2023-04-24T10:40:42;11.50;99.90
42333;DHT22;27984;51.476;5.702;2023-04-24T10:43:09;11.20;99.90
42333;DHT22;27984;51.476;5.702;2023-04-24T10:45:37;10.80;99.90
42333;DHT22;27984;51.476;5.702;2023-04-24T10:50:30;10.40;99.90
42333;DHT22;27984;51.476;5.702;2023-04-24T10:53:09;10.20;99.90
42333;DHT22;27984;51.476;5.702;2023-04-24T10:55:44;10.00;99.90
42333;DHT22;27984;51.476;5.702;2023-04-24T10:58:10;9.90;99.90
42333;DHT22;27984;51.476;5.702;2023-04-24T11:00:38;10.00;99.90
42333;DHT22;27984;51.476;5.702;2023-04-24T11:03:22;10.10;99.90
42333;DHT22;27984;51.476;5.702;2023-04-24T11:06:02;10.20;99.90
42333;DHT22;27984;51.476;5.702;2023-04-24T11:08:36;10.40;99.90
42333;DHT22;27984;51.476;5.702;2023-04-24T11:11:10;10.60;99.90
42333;DHT22;27984;51.476;5.702;2023-04-24T11:16:37;10.70;99.90
42333;DHT22;27984;51.476;5.702;2023-04-24T11:22:01;10.60;99.90
42333;DHT22;27984;51.476;5.702;2023-04-24T11:34:54;10.70;99.90
42333;DHT22;27984;51.476;5.702;2023-04-24T11:37:20;10.50;99.90
42333;DHT22;27984;51.476;5.702;2023-04-24T11:39:45;10.30;99.90
42333;DHT22;27984;51.476;5.702;2023-04-24T11:42:14;10.10;99.90
42333;DHT22;27984;51.476;5.702;2023-04-24T11:44:41;10.00;99.90
42333;DHT22;27984;51.476;5.702;2023-04-24T11:47:08;9.70;99.90
42333;DHT22;27984;51.476;5.702;2023-04-24T11:49:33;9.60;99.90
42333;DHT22;27984;51.476;5.702;2023-04-24T11:52:01;9.50;99.90
42333;DHT22;27984;51.476;5.702;2023-04-24T11:54:27;9.40;99.90
